Dados Meteorológicos "Online"
 
  Base de Dados  
 
Dinamização da Estação Meteorológica (na escola)
 
Dados relativos aos últimos 2 meses:
Data/HoraTemperaturaHumi. Rela.PressãoPrecipitaçãoVel.VentoDir.VentoVel.RajadaDir.RajadaRadiação SolarÍndice U.V.
(ºC)(%)(hPa)(mm)(km/h)(km/h)(W / m2)(0-11)
2020-12-02 13:00:0019,160,51016,503,4W9,0W4391,3
2020-12-02 12:00:0018,570,21017,704,3SW9,2SW4101,1
2020-12-02 11:00:0016,485,21018,504,8S10,1SW3610,7
2020-12-02 10:00:0013,199,21019,001,8S5,2S2800,3
2020-12-02 09:00:008,9100,01019,402,0E6,5E600,0
2020-12-02 08:00:007,9100,01019,201,2NE5,0NE60
2020-12-02 07:00:008,1100,01018,801,5N4,5NW00
2020-12-02 06:00:008,4100,01013,201,4N4,6NW00
2020-12-02 05:00:008,7100,01012,201,5E3,6S00
2020-12-02 04:00:009,0100,01013,101,1N6,3NE00
2020-12-02 03:00:009,2100,01016,101,5N4,2N00
2020-12-02 02:00:009,7100,01015,700,8N3,1N00
2020-12-02 01:00:0010,4100,01021,001,9E5,3NE00
2020-12-02 00:00:0010,8100,01021,401,3N4,5N00
2020-12-01 23:00:0011,4100,01021,401,3N9,7NE00
2020-12-01 22:00:0012,1100,01021,500,7NE3,1SW00
2020-12-01 21:00:0012,999,91021,202,7N5,9N00
2020-12-01 20:00:0013,399,11021,102,6NW8,2NW00
2020-12-01 19:00:0014,297,71020,602,2NW8,2NW00
2020-12-01 18:00:0015,694,41020,402,0SE4,4S10
2020-12-01 17:00:0017,087,81020,205,0S13,5S170,0
2020-12-01 16:00:0018,081,01019,808,0S14,4SE340,2
2020-12-01 15:00:0019,871,61019,808,5S21,1S2190,6
2020-12-01 14:00:0021,464,01020,506,6SE13,0SE3801,1
2020-12-01 13:00:0020,467,21021,309,1SE18,0E4261,3
2020-12-01 12:00:0020,071,71021,8010,0E22,4SE4641,3
2020-12-01 11:00:0018,478,51022,204,8E12,3SE3460,8
2020-12-01 10:00:0015,893,61022,802,4E6,1NE2320,3
2020-12-01 09:00:0012,1100,01022,903,5NE7,7NE510,0
2020-12-01 08:00:0011,5100,01022,604,9NE9,7NE50
2020-12-01 07:00:0011,9100,01022,304,1NE7,4NE-10
2020-12-01 06:00:0012,799,51021,906,1E11,9NE00
2020-12-01 05:00:0012,799,81021,906,1NE15,1E-10
2020-12-01 04:00:0012,699,91022,406,1NE11,0NE00
2020-12-01 03:00:0012,6100,01022,607,2NE12,5NE-10
2020-12-01 02:00:0012,8100,01022,406,6NE12,3NE-10
2020-12-01 01:00:0012,7100,01022,106,1NE13,1NE-10
2020-12-01 00:00:0012,9100,01022,005,6NE11,1E00
2020-11-30 23:00:0013,2100,01021,705,9NE10,4NE00
2020-11-30 22:00:0013,4100,01021,505,8NE11,8NE00
2020-11-30 21:00:0013,6100,01021,205,8NE13,9NE00
2020-11-30 20:00:0013,8100,01020,70,26,4NE12,5E00
2020-11-30 19:00:0014,2100,01020,507,3E20,7E00
2020-11-30 18:00:0014,1100,01020,103,8NE10,2NE10
2020-11-30 17:00:0014,399,61019,214,69,4SW27,3S100
2020-11-30 16:00:0015,991,21018,412,415,6SE30,0E110,0
2020-11-30 15:00:0016,880,81017,5016,1E38,8E1280,3
2020-11-30 14:00:0016,090,71018,109,8E21,7SE1700,5
2020-11-30 13:00:0015,794,61018,6011,4E26,2E2840,9
2020-11-30 12:00:0015,597,41019,1012,8E25,1E3540,9
2020-11-30 11:00:0013,5100,01019,83,811,1E22,8E1620,3
2020-11-30 10:00:0012,999,71019,40,29,1E18,0E230,0
2020-11-30 09:00:0012,699,71018,6110,8E24,1E180,0
2020-11-30 08:00:0012,499,01018,10,88,5E22,7NE20
2020-11-30 07:00:0012,698,71017,50,210,0E23,3E00
2020-11-30 06:00:0012,599,01017,11,45,9E13,8E00
2020-11-30 05:00:0011,899,11017,005,9NE11,5NE00
2020-11-30 04:00:0011,2100,01017,208,4E16,4NE00
2020-11-30 03:00:0010,8100,01017,205,8E11,2NE00
2020-11-30 02:00:0010,6100,01017,203,5E8,8E00
2020-11-30 01:00:0010,8100,01017,502,8E11,2NE00
2020-11-30 00:00:0010,9100,01017,502,6E9,7E00,0
2020-11-29 23:00:0011,0100,01017,202,9E7,0E00
2020-11-29 22:00:0011,099,91016,802,6E9,1E00
2020-11-29 21:00:0011,499,01016,402,7NE6,6NE00
2020-11-29 20:00:0011,997,21015,703,8NE7,9N00
2020-11-29 19:00:0013,193,61015,004,1N11,4N00
2020-11-29 18:00:0014,688,31014,206,4NW14,2NW40
2020-11-29 17:00:0015,684,51013,505,5S15,2S340,0
2020-11-29 16:00:0016,879,01013,2010,8S29,8S1120,2
2020-11-29 15:00:0016,981,11012,8012,6S28,1S2440,6
2020-11-29 14:00:0016,389,71013,108,8S22,5S3961,1
2020-11-29 13:00:0014,897,610140,23,6SE9,4SE3441,0
2020-11-29 12:00:0013,799,01014,44,43,3W15,4NW1060,3
2020-11-29 11:00:0014,098,51014,704,0E8,0E1340,3
2020-11-29 10:00:0012,899,91014,604,4E10,9E2230,2
2020-11-29 09:00:0010,3100,01014,30,83,8E14,4E620,0
2020-11-29 08:00:009,1100,01013,802,7E6,1E130
2020-11-29 07:00:009,2100,01013,404,2E8,2E00
2020-11-29 06:00:009,9100,01013,102,9NE12,2W00
2020-11-29 05:00:0010,0100,01013,003,7E8,1NE00
2020-11-29 04:00:0010,1100,01012,90,42,6N13,2W00
2020-11-29 03:00:009,6100,01012,903,0NE10,8NE00
2020-11-29 02:00:009,5100,01012,802,8NE5,3E00
2020-11-29 01:00:009,5100,01012,902,9E5,2NE00
2020-11-29 00:00:0010,0100,01012,701,0NE6,1E-10
2020-11-28 23:00:0010,9100,01012,301,2NE4,0N00
2020-11-28 22:00:0011,8100,01011,901,7NE4,3N00
2020-11-28 21:00:0011,9100,01011,401,9E3,5SE00
2020-11-28 20:00:0012,2100,01010,701,7NE8,4E00
2020-11-28 19:00:0012,399,41009,803,5NW9,2NW00
2020-11-28 18:00:0013,497,71009,007,3NW22,2W40
2020-11-28 17:00:0015,197,11007,40,414,5W41,9NW400,0
2020-11-28 16:00:0015,795,51007,71,813,8SW32,3S460,0
2020-11-28 15:00:0017,976,91008,1012,2SW38,4SW1210,3
2020-11-28 14:00:0017,874,21008,9012,2SW25,5SW1500,5
2020-11-28 13:00:0017,976,91009,708,8S23,2SW2130,8
2020-11-28 12:00:0017,381,31010,906,3S12,8SE2931,0
2020-11-28 11:00:0014,887,01011,702,9SE6,4NE3150,7
2020-11-28 10:00:0011,395,91012,103,8E9,2E2020,3
2020-11-28 09:00:008,5100,01012,101,8E6,2E690,0
2020-11-28 08:00:007,3100,01011,701,6E3,9E100
2020-11-28 07:00:007,3100,01005,301,6NE6,6E-10
2020-11-28 06:00:007,6100,01010,301,4NE4,7E00
2020-11-28 05:00:007,9100,01010,702,3E9,6E00
2020-11-28 04:00:008,199,81010,801,8N4,6N00
2020-11-28 03:00:008,499,21010,802,0NW7,1NW00
2020-11-28 02:00:008,898,51010,702,2NW4,8W00
2020-11-28 01:00:009,497,21011,001,1N3,2NE00
2020-11-28 00:00:009,796,31011,001,6N4,2N00
2020-11-27 23:00:0010,592,71011,201,8NE6,0E00
2020-11-27 22:00:0011,887,41010,901,9NW8,6NE00
2020-11-27 21:00:0011,886,21010,802,3NW6,1W00
2020-11-27 20:00:0011,188,31010,203,7NW12,0NW00
2020-11-27 19:00:0012,183,41009,603,9NW10,7NW00
2020-11-27 18:00:0013,576,91009,306,1N12,9N20
2020-11-27 17:00:0014,576,61008,905,1NW20,0NW200,0
2020-11-27 16:00:0015,468,11008,603,5N11,8W900,1
2020-11-27 15:00:0015,965,31008,404,7NE15,8NE1400,4
2020-11-27 14:00:0016,664,01008,405,4N12,4N2630,8
2020-11-27 13:00:0015,970,01009,104,8NE11,2N2751,0
2020-11-27 12:00:0014,882,21009,804,6E10,3SE3511,0
2020-11-27 11:00:0013,888,21010,503,8E8,9E3620,8
2020-11-27 10:00:0011,895,51010,90,22,8NE6,7E2800,3
2020-11-27 09:00:008,9100,01010,802,6E8,1NE410,0
2020-11-27 08:00:008,4100,01010,604,7NE14,6NE70
2020-11-27 07:00:008,2100,01010,304,2NE12,8NE00
2020-11-27 06:00:008,4100,01009,805,2E10,9E00
2020-11-27 05:00:009,099,81009,504,2NE7,5NE00
2020-11-27 04:00:009,999,71009,604,1NE10,2NE00
2020-11-27 03:00:0010,198,51009,30,63,2NE14,2E00
2020-11-27 02:00:0010,397,71009,416,7NE15,5E00
2020-11-27 01:00:0010,792,51009,518,5NE18,9NE00
2020-11-27 00:00:0012,085,91009,307,8E18,4E00
2020-11-26 23:00:0013,384,31008,6010,5SE22,5SE00
2020-11-26 22:00:0012,987,91008,6014,9SE37,1S00
2020-11-26 21:00:0012,192,61008,5014,1SE35,0SE00
2020-11-26 20:00:0011,294,31008,3012,7SE36,4SE00
2020-11-26 19:00:0011,394,61007,7013,7E27,6E00
2020-11-26 18:00:0012,392,31006,62,814,2E29,4E20
2020-11-26 17:00:0015,674,31005,60,410,2SE24,9SE800,0
2020-11-26 16:00:0016,070,01005,208,8SE19,2SE840,2
2020-11-26 15:00:0017,265,61005,0010,0S19,7SE2840,7
2020-11-26 14:00:0017,269,51005,209,5S17,9S3811,1
2020-11-26 13:00:0015,781,21005,908,7S17,5S4651,3
2020-11-26 12:00:0014,392,51007,005,0SE19,9SW3740,9
2020-11-26 11:00:0012,796,41007,50,44,5NE10,9E2250,4
2020-11-26 10:00:0011,299,31007,30,23,3E9,7E1780,2
2020-11-26 09:00:009,3100,01007,404,0NE10,1E380,0
2020-11-26 08:00:009,0100,01007,00,42,7N9,5NW30
2020-11-26 07:00:009,0100,01006,903,9NE8,6NE00
2020-11-26 06:00:009,0100,01006,704,6NE10,4E00
2020-11-26 05:00:009,4100,01007,004,3E9,9E00
2020-11-26 04:00:009,1100,01007,703,6NE12,9E00
2020-11-26 03:00:009,7100,01008,10,44,6N21,1NW00
2020-11-26 02:00:009,6100,01008,30,23,4NE11,5N00
2020-11-26 01:00:009,9100,01009,002,3E8,9E00
2020-11-26 00:00:0010,199,41009,201,0NE8,1E00
2020-11-25 23:00:0010,997,11009,50,62,6N10,4NW00
2020-11-25 22:00:0012,094,71009,405,2W17,8NW00
2020-11-25 21:00:0012,395,81009,301,6N4,8N00
2020-11-25 20:00:0012,892,41009,301,6N5,9N00
2020-11-25 19:00:0013,191,31009,902,2W10,2W00
2020-11-25 18:00:0014,385,11010,004,6W21,1W10
2020-11-25 17:00:0015,479,31010,20,24,4SW15,6SW360,0
2020-11-25 16:00:0016,177,61010,406,6SW14,8SW990,1
2020-11-25 15:00:0016,876,61010,706,6SW15,2SW1820,5
2020-11-25 14:00:0016,183,71011,405,7W15,7W2110,7
2020-11-25 13:00:0015,491,41012,307,5NW17,0W1900,7
2020-11-25 12:00:0015,492,81013,309,7NW22,0NW2180,7
2020-11-25 11:00:0014,896,11013,40,211,5NW29,7NW2700,7
2020-11-25 10:00:0014,599,31013,30,69,3W36,9W1060,2
2020-11-25 09:00:0014,3100,01013,84,612,4SW32,3W200,0
2020-11-25 08:00:0014,399,91014,31,87,2SW17,4SW20
2020-11-25 07:00:0014,398,41015,02,411,6SW38,0SW00
2020-11-25 06:00:0015,194,11014,94,68,7SW26,5SW-10
2020-11-25 05:00:0016,886,11015,50,414,6S31,4S00
2020-11-25 04:00:0016,088,81016,9011,9S23,6SW00
2020-11-25 03:00:0012,995,81018,203,2E21,0SW-10
2020-11-25 02:00:0012,396,21019,302,5NE6,3N00
2020-11-25 01:00:0011,896,71020,202,4E6,8E00
2020-11-25 00:00:0011,397,31020,902,2E6,3E00
2020-11-24 23:00:0011,298,01021,302,3E6,1E00
2020-11-24 22:00:0011,197,81021,802,0E5,4E00
2020-11-24 21:00:0011,695,71021,801,4NW4,9NW00
2020-11-24 20:00:0012,593,71021,601,6NW4,3NW00
2020-11-24 19:00:0013,490,71021,404,0W9,2W00
2020-11-24 18:00:0015,286,41020,903,7W11,1SW20
2020-11-24 17:00:0016,680,41020,905,5SW12,1SW300,0
2020-11-24 16:00:0017,875,01020,907,6SW15,1SW720,2
2020-11-24 15:00:0018,671,11021,106,4SW11,7S2100,6
2020-11-24 14:00:0019,468,71021,607,7S16,3SW1970,5
2020-11-24 13:00:0019,865,21022,304,0E13,8N4821,5
2020-11-24 12:00:0018,871,61023,707,1E19,8E4021,3
2020-11-24 11:00:0017,277,91024,904,0E9,1NE3400,9
2020-11-24 10:00:0013,594,11025,603,2E7,3E2650,4
2020-11-24 09:00:009,8100,01025,802,4E10,1E560,0
2020-11-24 08:00:008,8100,01025,502,4E8,1E70,0
2020-11-24 07:00:009,0100,01025,202,8E5,1NE00
2020-11-24 06:00:009,2100,01024,902,9E4,9E00
2020-11-24 05:00:009,1100,01024,803,0E5,0E00
2020-11-24 04:00:009,3100,01025,102,7E5,1NE00
2020-11-24 03:00:009,999,51025,102,4E5,0E00
2020-11-24 02:00:0010,398,91025,302,5E5,0E00
2020-11-24 01:00:0010,997,91025,602,4E4,6E00
2020-11-24 00:00:0011,595,51026,002,0E7,2E-10
2020-11-23 23:00:0012,095,11026,003,3N8,0N00
2020-11-23 22:00:0012,095,71026,302,0NE5,2E00
2020-11-23 21:00:0011,895,31026,001,8NE6,3NE00
2020-11-23 20:00:0012,792,11025,503,2N6,5N00
2020-11-23 19:00:0013,788,41025,003,9N7,0N00
2020-11-23 18:00:0015,281,91024,902,4SE7,3SE60
2020-11-23 17:00:0016,676,21023,706,5SE18,7SE440,0
2020-11-23 16:00:0017,571,51019,509,0S15,6S440,2
2020-11-23 15:00:0019,360,01021,209,6SE18,0SE2100,8
2020-11-23 14:00:0020,156,31023,607,3SE13,4SE4331,4
2020-11-23 13:00:0019,258,71025,807,0SE18,0S4631,7
2020-11-23 12:00:0018,660,61027,004,9SE10,6E4441,5
2020-11-23 11:00:0016,870,41027,805,1E10,9E3751,0
2020-11-23 10:00:0013,982,21028,104,3E9,4E2810,4
2020-11-23 09:00:009,1100,01028,203,9E12,4E740,1
2020-11-23 08:00:007,9100,01027,802,8E4,7E120
2020-11-23 07:00:008,0100,01027,302,7E4,9E00
2020-11-23 06:00:008,3100,01027,002,7E4,6E00
2020-11-23 05:00:008,7100,01026,802,8E7,7NE00
2020-11-23 04:00:009,1100,01026,902,7E4,7E00
2020-11-23 03:00:009,499,51026,902,3E4,9E00
2020-11-23 02:00:009,899,31026,802,8E6,9E00
2020-11-23 01:00:009,998,61027,002,7E5,1E00,0
2020-11-23 00:00:0010,597,71027,101,1E3,4E00
2020-11-22 23:00:0010,896,31027,201,5NE6,6NE00
2020-11-22 22:00:0011,493,71027,101,4NE3,8N00
2020-11-22 21:00:0012,090,71026,801,9N5,0N00
2020-11-22 20:00:0013,186,51026,302,8N7,3NE00
2020-11-22 19:00:0014,182,21025,702,6N6,1N00
2020-11-22 18:00:0015,872,61025,103,4E8,8E20
2020-11-22 17:00:0017,465,61024,407,0SE16,8E180,0
2020-11-22 16:00:0018,364,51023,609,1SE18,7SE320,2
2020-11-22 15:00:0019,561,31023,8011,4SE22,5SE2200,8
2020-11-22 14:00:0020,456,51024,5012,5SE26,4S4251,4
2020-11-22 13:00:0019,858,11025,4015,1SE29,0E4551,7
2020-11-22 12:00:0019,663,61026,4014,4SE27,3SE4321,5
2020-11-22 11:00:0018,767,41027,0012,1E27,2SE3681,0
2020-11-22 10:00:0017,272,41027,409,8E17,3NE2690,5
2020-11-22 09:00:0013,784,61027,406,8E12,8E700,1
2020-11-22 08:00:0012,888,91026,905,8E11,0E110
2020-11-22 07:00:0013,388,71026,405,8NE12,5E00
2020-11-22 06:00:0013,689,71026,008,4E15,7NE00
2020-11-22 05:00:0013,792,51025,708,6E14,7E00
2020-11-22 04:00:0014,292,01025,508,3E14,5E00
2020-11-22 03:00:0014,791,21025,309,3E16,0NE00
2020-11-22 02:00:0014,593,01025,108,9E15,9E-10
2020-11-22 01:00:0014,692,91025,106,6E13,1E-10
2020-11-22 00:00:0014,992,61025,107,7E14,2NE00
2020-11-21 23:00:0014,893,21025,008,3E15,1NE00
2020-11-21 22:00:0015,092,51024,808,1E14,9E00
2020-11-21 21:00:0015,690,21024,606,7E14,8E00
2020-11-21 20:00:0016,188,01024,107,0E12,8NE00
2020-11-21 19:00:0016,885,81023,706,5E11,8NE00
2020-11-21 18:00:0018,080,01022,107,8E22,1SE20
2020-11-21 17:00:0019,075,31022,4014,3SE27,8E190,0
2020-11-21 16:00:0019,672,51022,6015,7SE28,0SE320,2
2020-11-21 15:00:0020,767,81022,5015,6SE28,9E2260,8
2020-11-21 14:00:0021,267,71022,8016,4SE32,3E4261,4
2020-11-21 13:00:0020,672,21023,5015,0SE29,6E4441,6
2020-11-21 12:00:0020,174,41024,4012,4SE27,2E3591,4
2020-11-21 11:00:0019,374,11024,807,8E17,1SE3541,0
2020-11-21 10:00:0016,481,91020,304,8NE11,6NE2780,5
2020-11-21 09:00:0011,2100,01017,201,8NE8,7E790,1
2020-11-21 08:00:0010,3100,01016,801,8E6,0NE130
2020-11-21 07:00:0010,7100,01016,301,8E6,5E00
2020-11-21 06:00:0010,9100,01017,802,3E6,3E00
2020-11-21 05:00:0011,1100,01023,102,7E8,3NE00
2020-11-21 04:00:0011,2100,01023,303,8E9,5NE00
2020-11-21 03:00:0011,599,91023,602,8E5,6NE00
2020-11-21 02:00:0012,199,31023,503,9E9,0E00
2020-11-21 01:00:0012,599,01023,703,8E11,1NE00
2020-11-21 00:00:0012,898,81024,202,9E8,6E-10
2020-11-20 23:00:0013,398,51024,002,9NE7,1N00
2020-11-20 22:00:0013,897,11024,101,7E6,8E00
2020-11-20 21:00:0014,595,21023,903,0N8,0N00
2020-11-20 20:00:0015,294,31023,704,2NW9,4N00
2020-11-20 19:00:0016,092,21023,602,9NW5,6NW00
2020-11-20 18:00:0017,685,81023,203,3W7,9SW20
2020-11-20 17:00:0019,574,21023,002,5S7,9S190,0
2020-11-20 16:00:0020,768,51022,707,0S13,3S330,3
2020-11-20 15:00:0022,761,01022,907,1S14,0S2160,9
2020-11-20 14:00:0023,063,61023,809,4S18,0SE4261,5
2020-11-20 13:00:0023,756,81024,807,2SE14,0S4551,8
2020-11-20 12:00:0022,858,01025,908,0E18,4E4421,6
2020-11-20 11:00:0020,775,71026,404,9E12,5E3731,1
2020-11-20 10:00:0017,293,51026,903,8NE8,5NE2790,5
2020-11-20 09:00:0012,9100,01027,201,8E5,2NE810,1
2020-11-20 08:00:0011,7100,01027,302,3E4,6NE140
2020-11-20 07:00:0011,8100,01027,103,1NE6,7E00
2020-11-20 06:00:0011,9100,01026,804,1E8,2SE00
2020-11-20 05:00:0012,1100,01026,602,3NE8,1NE00
2020-11-20 04:00:0012,9100,01026,802,3E6,1SE00
2020-11-20 03:00:0013,2100,01026,904,0E6,9SE00
2020-11-20 02:00:0013,499,71027,303,7E7,5NE00
2020-11-20 01:00:0013,798,71027,702,3E5,8NE00
2020-11-20 00:00:0014,198,91028,202,8E5,8E00
2020-11-19 23:00:0014,398,91028,303,0E9,5SE00
2020-11-19 22:00:0014,798,01028,101,6E10,7SE00
2020-11-19 21:00:0015,196,31027,801,8E3,9E00
2020-11-19 20:00:0015,892,51027,102,5NW10,5NW00
2020-11-19 19:00:0016,887,71026,801,9S4,4NW00
2020-11-19 18:00:0018,282,61026,202,8SE6,8S30
2020-11-19 17:00:0020,077,51026,003,2SW9,3SW230,0
2020-11-19 16:00:0021,271,71025,702,9SW9,9S480,3
2020-11-19 15:00:0022,963,11025,707,2SE13,7SE2100,9
2020-11-19 14:00:0023,761,81025,807,6S16,2SE4121,5
2020-11-19 13:00:0023,661,71026,207,7S17,2S4401,8
2020-11-19 12:00:0022,867,51026,904,9S12,7SW4191,6
2020-11-19 11:00:0020,376,51027,302,0SE6,2E3011,0
2020-11-19 10:00:0016,991,11027,502,9E7,0E2180,4
2020-11-19 09:00:0014,399,91027,502,9E8,6SE1070,1
2020-11-19 08:00:0012,8100,01027,001,5E9,5N270
2020-11-19 07:00:0013,1100,01026,403,2E6,8NE00
2020-11-19 06:00:0013,0100,01026,004,5E8,7E00
2020-11-19 05:00:0013,299,71025,502,4N5,0E00
2020-11-19 04:00:0013,998,81025,201,4NE4,0E00
2020-11-19 03:00:0014,598,21024,802,0N7,2N00
2020-11-19 02:00:0014,898,41024,902,1N5,8E00
2020-11-19 01:00:0014,699,31025,103,0N9,4NW00
2020-11-19 00:00:0014,998,71024,902,7N6,9NE00
2020-11-18 23:00:0015,897,01024,802,0N7,2NE00
2020-11-18 22:00:0016,894,61024,508,3E19,1E00
2020-11-18 21:00:0017,293,71024,703,7E10,0E00
2020-11-18 20:00:0017,693,71024,602,9NE9,0NE00
2020-11-18 19:00:0017,992,81024,403,1E6,6E00
2020-11-18 18:00:0018,591,01024,004,0E10,6SE20
2020-11-18 17:00:0019,289,01023,804,8SE11,6SE240,0
2020-11-18 16:00:0020,085,91023,707,1SE15,4SE860,3
2020-11-18 15:00:0020,782,51023,708,9SE16,7SE1720,7
2020-11-18 14:00:0022,673,61024,208,7SE15,7SE3061,3
2020-11-18 13:00:0022,773,11024,907,4SE17,1SE4291,7
2020-11-18 12:00:0021,976,01025,609,7SE17,7SE4281,6
2020-11-18 10:00:0016,299,61026,501,5E6,2E2580,5
2020-11-18 09:00:0013,6100,01026,701,4E4,2SE650,1
2020-11-18 08:00:0012,6100,01026,402,4E5,5SE120
2020-11-18 07:00:0012,4100,01026,00,22,0E3,8E-10
2020-11-18 06:00:0012,5100,01025,803,3E6,7E00
2020-11-18 05:00:0012,4100,01025,702,7E7,3E00
2020-11-18 04:00:0012,6100,01025,802,4E5,1NE00
2020-11-18 03:00:0012,9100,01025,902,6E11,5E-10
2020-11-18 02:00:0013,0100,01025,903,5E6,4E00
2020-11-18 01:00:0013,2100,01026,302,0NE8,6E00
2020-11-18 00:00:0013,8100,01026,501,6NE6,4NE-10
2020-11-17 23:00:0014,3100,01026,402,7E6,8NE00
2020-11-17 22:00:0014,8100,01026,302,0E5,8E00
2020-11-17 21:00:0015,299,81025,902,2NE5,8E00
2020-11-17 20:00:0015,898,91025,502,1N3,9NE00
2020-11-17 19:00:0016,497,31025,203,0E12,5E00
2020-11-17 18:00:0017,194,81024,604,6SE14,8SE30
2020-11-17 17:00:0018,390,81024,507,6SE16,3S260,0
2020-11-17 16:00:0019,287,21024,1010,7S20,2SE490,3
2020-11-17 15:00:0021,079,41024,1010,4SE18,7S2140,9
2020-11-17 14:00:0022,275,01024,509,0SE16,5SE4221,6
2020-11-17 13:00:0021,577,71025,108,2SE16,1SE4331,8
2020-11-17 12:00:0020,183,51025,908,6E15,4SE3021,4
2020-11-17 11:00:0018,890,71026,306,8E12,7E1970,7
2020-11-17 10:00:0017,498,61026,505,9E12,6NE1080,2
2020-11-17 09:00:0016,6100,01025,904,9E18,2E450,0
2020-11-17 08:00:0016,3100,01025,104,1E9,7NE70
2020-11-17 07:00:0016,2100,01024,802,1NE7,5NE00
2020-11-17 06:00:0015,9100,01024,702,0NE7,6N-10
2020-11-17 05:00:0015,6100,01024,603,5NE9,5NE-10
2020-11-17 04:00:0015,6100,01024,702,9NE6,4N00
2020-11-17 03:00:0015,7100,01024,603,6E9,9NE00
2020-11-17 02:00:0015,9100,01024,504,7E9,7SE00
2020-11-17 01:00:0016,1100,01024,703,6NE7,8E00
2020-11-17 00:00:0016,6100,01025,003,2E6,4E-10
2020-11-16 23:00:0016,8100,01025,101,1N5,0SW00
2020-11-16 22:00:0016,6100,01025,000,8NW6,1NW00
2020-11-16 21:00:0016,099,81024,901,5NE9,6NE00
2020-11-16 20:00:0016,499,21024,301,9SW4,2SW00
2020-11-16 19:00:0017,097,41023,701,8W4,8NW00
2020-11-16 18:00:0018,094,01023,403,5SW10,0SW70
2020-11-16 17:00:0019,289,41023,404,9SW10,0SW450,0
2020-11-16 16:00:0019,785,71023,006,5SW14,1S510,3
2020-11-16 15:00:0021,380,01023,007,8S22,2S2130,9
2020-11-16 14:00:0021,878,31023,308,7S16,7SW4121,6
2020-11-16 13:00:0022,176,21023,806,4SE14,5SE4621,9
2020-11-16 12:00:0021,279,61024,505,0E10,4SE3911,6
2020-11-16 11:00:0019,886,61025,005,5NE10,9NE3651,1
2020-11-16 10:00:0016,998,21025,005,9NE14,0NE1890,4
2020-11-16 09:00:0016,0100,01024,603,8NE10,8NE820,1
2020-11-16 08:00:0016,3100,01023,801,2N4,1N60
2020-11-16 07:00:0016,5100,01023,302,1N7,0N00
2020-11-16 06:00:0016,3100,01022,502,0N5,9N00
2020-11-16 05:00:0015,8100,01022,201,4NW8,3SW00
2020-11-16 04:00:0016,299,61022,401,8S4,7S00
2020-11-16 03:00:0017,399,01022,801,8E6,5E00
2020-11-16 02:00:0017,599,11022,603,2N8,0NW00
2020-11-16 01:00:0018,198,41022,603,1NW7,1N00
2020-11-16 00:00:0018,098,51022,401,5NE5,7N00
2020-11-15 23:00:0018,099,71022,401,4E4,9N00
2020-11-15 22:00:0017,599,91022,002,0N5,3N00
2020-11-15 21:00:0017,698,91021,702,3NW5,2NW00
2020-11-15 20:00:0018,297,81021,303,3E11,4N00
2020-11-15 19:00:0018,596,21021,103,5E9,1SE-10
2020-11-15 18:00:0019,591,91020,503,1SE9,9E50
2020-11-15 17:00:0020,886,71020,106,6SE16,3SE400,0
2020-11-15 16:00:0021,683,41019,709,8SE18,9SE590,3
2020-11-15 15:00:0022,878,01019,6011,0SE24,2SE2300,8
2020-11-15 14:00:0023,575,51019,9011,4SE23,6SE3741,4
2020-11-15 13:00:0023,575,31020,4010,7SE19,1SE4351,6
2020-11-15 12:00:0023,176,81020,9012,9SE24,7SE4411,5
2020-11-15 11:00:0022,280,31020,9012,7SE23,8SE3781,1
2020-11-15 10:00:0021,086,21021,209,7E18,3E2840,5
2020-11-15 09:00:0018,796,81021,30,24,9E10,0E970,1
2020-11-15 08:00:0018,598,31021,107,1E16,2SE200
2020-11-15 07:00:0018,598,91020,609,4E17,2E-10
2020-11-15 06:00:0018,499,31020,408,7E16,6E-10
2020-11-15 05:00:0018,2100,01020,207,8E15,4E-10
2020-11-15 04:00:0018,1100,01020,508,4E17,4E-10
2020-11-15 03:00:0018,0100,01020,907,6E14,9E-10
2020-11-15 02:00:0018,0100,01021,206,3E11,7E-10
2020-11-15 01:00:0017,5100,01021,305,6E11,3SE-10
2020-11-15 00:00:0017,2100,01021,404,1E8,5E-10
2020-11-14 23:00:0017,3100,01021,604,1E9,4E-10
2020-11-14 22:00:0017,5100,01021,802,6E5,5E-10
2020-11-14 21:00:0017,5100,01021,603,3E6,7E-10
2020-11-14 20:00:0017,799,71021,402,9E7,5SE00
2020-11-14 19:00:0018,398,71021,203,7SE7,3SE00
2020-11-07 18:00:0017,586,41020,906,7S15,1S40
2020-11-05 11:00:0019,161,91011,9010,3SE23,7SE3541,1
2020-11-04 21:00:0012,976,31011,805,7NE14,3NE00